Hobart Ellerslie Road, Tasmania

11:58 PM AEST on September 05, 2015 (GMT +1000)
inland, home. | | Change Station
CLOSE
Current Station
Personal Weather Station
Location: Hobart, TASMANIA
Elevation: 85 ft
Nearby Weather Stations

Elev 85 ft 42.88 °S, 147.32 °E | Updated 6 seconds ago

Mostly Cloudy
Mostly Cloudy
43.5 °F
Feels Like 44 °F
N
2.2
Wind Variable Wind from SW
Gusts 3.1 mph

Today
High -- | Low -- °F
--% Chance of Precip.
Yesterday
High -- | Low -- °F
Precip. -- in
6:31 AM 5:48 PM
Waning Gibbous, 48% visible
Pressure 30.27 in
Visibility 6.2 miles
Clouds Few 3000 ft
Mostly Cloudy 4000 ft
Windchill 44 °F
Dew Point 37 °F
Humidity 79%
Rainfall in
Snow Depth Not available.
UV 0 out of 12
Pollen Not available.
Air Quality Not available.
Flu Activity Not available.
METAR YMHB 051330Z 09003KT 9999 FEW030 BKN040 07/02 Q1025
Pressure 30.27 in
Visibility 6.2 miles
Clouds Few 3000 ft
Mostly Cloudy 4000 ft
Windchill 44 °F
Dew Point 37 °F
Humidity 79%
Rainfall in
Snow Depth Not available.
UV 0 out of 12
Pollen Not available.
Air Quality Not available.
Flu Activity Not available.
METAR YMHB 051330Z 09003KT 9999 FEW030 BKN040 07/02 Q1025

10-Day Weather Forecast

×

Almanac

Astronomy

Sep. 05, 2015 Rise Set
Actual Time
Civil Twilight
Nautical Twilight
Astronomical Twilight
Moon
Length of Visible Light
Length of Day
Tomorrow will be .
, % of the Moon is Illuminated

Today's Extremes

Country Highs Country Lows

Community

WunderPhotos

Upload Photos

1,852,464 photos uploaded!

WunderBlogs® & News

Nearby

Air Quality

  Air Quality AQ Index Pollutant
Not available.

Snow Depth

Station Depth Elevation

Earthquake Activity

City Distance Mag. Time & Date
Minimum magnitude displayed is 2.5.

Coastal Water Temperatures

Place Temperature

Stations

Nearby Weather Stations

Station Location Temp. Windchill Dew Point Humidity Wind Precip. Elev Updated Type